< < Back
Terminal Aerodrome Forecast


Current Version              Previous Versions:   1  2  3  4  5  6  7  8  9  

Terminal Aerodrome Forecast

435
FTUS44 KMRX 021720
TAFTYS
TAF
KTYS 021720Z 0218/0318 24004KT P6SM SCT040 BKN250
     FM031500 02004KT P6SM SCT250=

Latest METAR

258
SAUS80 KWBC 030200 RRA
MTRTYS
METAR KTYS 030153Z 35003KT 10SM FEW045 SCT080 BKN250 26/21 A3004 RMK AO2
SLP159 T02560206 $


USA.gov is the U.S. government's official web portal to all federal, state and local government web resources and services.